sensor_id;sensor_type;location;lat;lon;timestamp;pressure;altitude;pressure_sealevel;temperature;humidity
32933;BME280;19444;50.518;10.870;2023-05-16T00:01:58;96181.06;;;8.81;100.00
32933;BME280;19444;50.518;10.870;2023-05-16T00:04:55;96186.19;;;8.69;100.00
32933;BME280;19444;50.518;10.870;2023-05-16T00:07:52;96188.03;;;8.68;100.00
32933;BME280;19444;50.518;10.870;2023-05-16T00:10:49;96188.09;;;8.54;100.00
32933;BME280;19444;50.518;10.870;2023-05-16T00:13:46;96187.31;;;8.40;100.00
32933;BME280;19444;50.518;10.870;2023-05-16T00:16:44;96185.38;;;8.32;100.00
32933;BME280;19444;50.518;10.870;2023-05-16T00:19:43;96179.53;;;8.44;100.00
32933;BME280;19444;50.518;10.870;2023-05-16T00:22:40;96177.78;;;8.62;100.00
32933;BME280;19444;50.518;10.870;2023-05-16T00:25:37;96180.41;;;8.39;100.00
32933;BME280;19444;50.518;10.870;2023-05-16T00:28:34;96182.50;;;8.65;100.00
32933;BME280;19444;50.518;10.870;2023-05-16T00:31:31;96188.19;;;8.49;100.00
32933;BME280;19444;50.518;10.870;2023-05-16T00:34:28;96190.38;;;8.47;100.00
32933;BME280;19444;50.518;10.870;2023-05-16T00:37:25;96185.50;;;8.63;100.00
32933;BME280;19444;50.518;10.870;2023-05-16T00:40:23;96176.75;;;8.71;100.00
32933;BME280;19444;50.518;10.870;2023-05-16T00:43:21;96176.63;;;8.76;100.00
32933;BME280;19444;50.518;10.870;2023-05-16T00:46:17;96173.19;;;8.98;100.00
32933;BME280;19444;50.518;10.870;2023-05-16T00:49:14;96173.13;;;8.90;100.00
32933;BME280;19444;50.518;10.870;2023-05-16T00:52:11;96166.25;;;8.97;100.00
32933;BME280;19444;50.518;10.870;2023-05-16T00:55:08;96165.56;;;8.92;100.00
32933;BME280;19444;50.518;10.870;2023-05-16T00:58:08;96159.94;;;8.93;100.00
32933;BME280;19444;50.518;10.870;2023-05-16T01:01:07;96162.44;;;9.21;100.00
32933;BME280;19444;50.518;10.870;2023-05-16T01:04:04;96171.28;;;8.99;100.00
32933;BME280;19444;50.518;10.870;2023-05-16T01:07:02;96164.19;;;8.94;100.00
32933;BME280;19444;50.518;10.870;2023-05-16T01:09:59;96172.34;;;8.89;100.00
32933;BME280;19444;50.518;10.870;2023-05-16T01:13:10;96172.81;;;8.91;100.00
32933;BME280;19444;50.518;10.870;2023-05-16T01:20:20;96179.53;;;8.44;100.00
32933;BME280;19444;50.518;10.870;2023-05-16T01:24:11;96171.66;;;8.61;100.00
32933;BME280;19444;50.518;10.870;2023-05-16T01:27:09;96175.63;;;8.50;100.00
32933;BME280;19444;50.518;10.870;2023-05-16T01:30:16;96168.44;;;8.50;100.00
32933;BME280;19444;50.518;10.870;2023-05-16T01:33:13;96159.69;;;8.59;100.00
32933;BME280;19444;50.518;10.870;2023-05-16T01:39:49;96167.06;;;8.39;100.00
32933;BME280;19444;50.518;10.870;2023-05-16T01:42:49;96175.47;;;8.91;100.00
32933;BME280;19444;50.518;10.870;2023-05-16T01:46:19;96168.78;;;9.02;100.00
32933;BME280;19444;50.518;10.870;2023-05-16T01:49:45;96181.94;;;8.90;100.00
32933;BME280;19444;50.518;10.870;2023-05-16T01:55:50;96190.72;;;8.91;100.00
32933;BME280;19444;50.518;10.870;2023-05-16T01:58:49;96186.38;;;8.59;100.00
32933;BME280;19444;50.518;10.870;2023-05-16T02:01:47;96191.06;;;8.75;100.00
32933;BME280;19444;50.518;10.870;2023-05-16T02:04:44;96183.66;;;8.95;100.00
32933;BME280;19444;50.518;10.870;2023-05-16T02:07:41;96185.75;;;8.98;100.00
32933;BME280;19444;50.518;10.870;2023-05-16T02:10:38;96195.94;;;8.96;100.00
32933;BME280;19444;50.518;10.870;2023-05-16T02:13:36;96184.41;;;8.87;100.00
32933;BME280;19444;50.518;10.870;2023-05-16T02:16:33;96192.00;;;8.93;100.00
32933;BME280;19444;50.518;10.870;2023-05-16T02:19:30;96193.88;;;9.15;100.00
32933;BME280;19444;50.518;10.870;2023-05-16T02:22:27;96180.25;;;9.03;100.00
32933;BME280;19444;50.518;10.870;2023-05-16T02:25:24;96191.53;;;8.69;100.00
32933;BME280;19444;50.518;10.870;2023-05-16T02:28:22;96185.19;;;8.65;100.00
32933;BME280;19444;50.518;10.870;2023-05-16T02:31:30;96184.63;;;8.76;100.00
32933;BME280;19444;50.518;10.870;2023-05-16T02:34:27;96196.50;;;8.84;100.00
32933;BME280;19444;50.518;10.870;2023-05-16T02:37:24;96191.09;;;8.98;100.00
32933;BME280;19444;50.518;10.870;2023-05-16T02:40:21;96191.09;;;8.98;100.00
32933;BME280;19444;50.518;10.870;2023-05-16T02:43:18;96192.31;;;8.92;100.00
32933;BME280;19444;50.518;10.870;2023-05-16T02:46:30;96201.72;;;8.89;100.00
32933;BME280;19444;50.518;10.870;2023-05-16T02:49:27;96195.09;;;8.87;100.00
32933;BME280;19444;50.518;10.870;2023-05-16T02:52:24;96193.88;;;8.93;100.00
32933;BME280;19444;50.518;10.870;2023-05-16T02:55:20;96199.59;;;9.00;100.00
32933;BME280;19444;50.518;10.870;2023-05-16T02:58:18;96200.25;;;8.83;100.00
32933;BME280;19444;50.518;10.870;2023-05-16T03:01:15;96207.97;;;9.07;100.00
32933;BME280;19444;50.518;10.870;2023-05-16T03:04:13;96202.75;;;9.02;100.00
32933;BME280;19444;50.518;10.870;2023-05-16T03:07:10;96211.00;;;8.92;100.00
32933;BME280;19444;50.518;10.870;2023-05-16T03:10:07;96207.13;;;8.98;100.00
32933;BME280;19444;50.518;10.870;2023-05-16T03:13:04;96206.16;;;8.94;100.00
32933;BME280;19444;50.518;10.870;2023-05-16T03:16:01;96197.94;;;9.12;100.00
32933;BME280;19444;50.518;10.870;2023-05-16T03:18:58;96204.00;;;9.04;100.00
32933;BME280;19444;50.518;10.870;2023-05-16T03:21:55;96204.63;;;9.01;100.00
32933;BME280;19444;50.518;10.870;2023-05-16T03:24:53;96208.56;;;9.04;100.00
32933;BME280;19444;50.518;10.870;2023-05-16T03:27:50;96195.94;;;8.73;100.00
32933;BME280;19444;50.518;10.870;2023-05-16T03:30:47;96196.63;;;9.24;100.00
32933;BME280;19444;50.518;10.870;2023-05-16T03:33:43;96199.28;;;9.24;100.00
32933;BME280;19444;50.518;10.870;2023-05-16T03:36:40;96207.84;;;9.12;100.00
32933;BME280;19444;50.518;10.870;2023-05-16T03:39:38;96213.63;;;9.05;100.00
32933;BME280;19444;50.518;10.870;2023-05-16T03:42:35;96211.88;;;9.01;100.00
32933;BME280;19444;50.518;10.870;2023-05-16T03:45:32;96216.78;;;8.85;100.00
32933;BME280;19444;50.518;10.870;2023-05-16T03:48:29;96214.13;;;9.07;100.00
32933;BME280;19444;50.518;10.870;2023-05-16T03:51:28;96228.75;;;8.88;100.00
32933;BME280;19444;50.518;10.870;2023-05-16T03:54:25;96227.13;;;8.64;100.00
32933;BME280;19444;50.518;10.870;2023-05-16T03:57:22;96236.31;;;8.72;100.00
32933;BME280;19444;50.518;10.870;2023-05-16T04:00:19;96233.63;;;9.08;100.00
32933;BME280;19444;50.518;10.870;2023-05-16T04:03:16;96233.59;;;9.30;100.00
32933;BME280;19444;50.518;10.870;2023-05-16T04:06:13;96239.94;;;8.90;100.00
32933;BME280;19444;50.518;10.870;2023-05-16T04:09:10;96245.56;;;8.88;100.00
32933;BME280;19444;50.518;10.870;2023-05-16T04:12:07;96245.19;;;8.81;100.00
32933;BME280;19444;50.518;10.870;2023-05-16T04:15:05;96249.28;;;9.01;100.00
32933;BME280;19444;50.518;10.870;2023-05-16T04:18:02;96254.63;;;9.01;100.00
32933;BME280;19444;50.518;10.870;2023-05-16T04:21:00;96267.13;;;9.14;100.00
32933;BME280;19444;50.518;10.870;2023-05-16T04:23:58;96268.25;;;8.77;100.00
32933;BME280;19444;50.518;10.870;2023-05-16T04:26:54;96274.63;;;9.26;100.00
32933;BME280;19444;50.518;10.870;2023-05-16T04:29:51;96271.94;;;9.03;100.00
32933;BME280;19444;50.518;10.870;2023-05-16T04:32:48;96271.53;;;9.10;100.00
32933;BME280;19444;50.518;10.870;2023-05-16T04:35:46;96276.31;;;8.99;100.00
32933;BME280;19444;50.518;10.870;2023-05-16T04:38:44;96275.97;;;9.15;100.00
32933;BME280;19444;50.518;10.870;2023-05-16T04:41:42;96271.75;;;9.22;100.00
32933;BME280;19444;50.518;10.870;2023-05-16T04:44:39;96275.28;;;9.54;100.00
32933;BME280;19444;50.518;10.870;2023-05-16T04:47:37;96269.47;;;9.07;100.00
32933;BME280;19444;50.518;10.870;2023-05-16T04:50:34;96280.50;;;9.14;100.00
32933;BME280;19444;50.518;10.870;2023-05-16T04:53:32;96268.88;;;9.63;100.00
32933;BME280;19444;50.518;10.870;2023-05-16T04:56:29;96273.41;;;9.54;100.00
32933;BME280;19444;50.518;10.870;2023-05-16T04:59:25;96277.13;;;9.45;100.00
32933;BME280;19444;50.518;10.870;2023-05-16T05:02:22;96282.25;;;9.94;100.00
32933;BME280;19444;50.518;10.870;2023-05-16T05:05:19;96286.13;;;9.80;100.00
32933;BME280;19444;50.518;10.870;2023-05-16T05:08:17;96291.47;;;9.80;100.00
32933;BME280;19444;50.518;10.870;2023-05-16T05:11:14;96282.16;;;9.46;100.00
32933;BME280;19444;50.518;10.870;2023-05-16T05:14:11;96286.72;;;9.46;100.00
32933;BME280;19444;50.518;10.870;2023-05-16T05:17:08;96294.19;;;9.57;100.00
32933;BME280;19444;50.518;10.870;2023-05-16T05:20:05;96291.59;;;10.06;100.00
32933;BME280;19444;50.518;10.870;2023-05-16T05:23:02;96289.81;;;10.32;100.00
32933;BME280;19444;50.518;10.870;2023-05-16T05:25:59;96296.25;;;10.71;100.00
32933;BME280;19444;50.518;10.870;2023-05-16T05:28:56;96297.66;;;10.77;100.00
32933;BME280;19444;50.518;10.870;2023-05-16T05:32:01;96297.19;;;10.75;100.00
32933;BME280;19444;50.518;10.870;2023-05-16T05:34:58;96298.94;;;11.14;100.00
32933;BME280;19444;50.518;10.870;2023-05-16T05:37:55;96298.16;;;11.48;100.00
32933;BME280;19444;50.518;10.870;2023-05-16T05:40:52;96302.88;;;11.43;100.00
32933;BME280;19444;50.518;10.870;2023-05-16T05:43:49;96298.16;;;11.39;100.00
32933;BME280;19444;50.518;10.870;2023-05-16T05:46:46;96297.53;;;11.25;100.00
32933;BME280;19444;50.518;10.870;2023-05-16T05:49:42;96290.44;;;11.29;100.00
32933;BME280;19444;50.518;10.870;2023-05-16T05:52:39;96295.16;;;11.32;100.00
32933;BME280;19444;50.518;10.870;2023-05-16T05:55:36;96299.25;;;11.56;100.00
32933;BME280;19444;50.518;10.870;2023-05-16T05:58:33;96302.03;;;11.85;100.00
32933;BME280;19444;50.518;10.870;2023-05-16T06:01:30;96305.50;;;11.94;100.00
32933;BME280;19444;50.518;10.870;2023-05-16T06:04:27;96313.91;;;11.84;100.00
32933;BME280;19444;50.518;10.870;2023-05-16T06:07:24;96310.09;;;11.94;100.00
32933;BME280;19444;50.518;10.870;2023-05-16T06:10:21;96315.53;;;12.15;100.00
32933;BME280;19444;50.518;10.870;2023-05-16T06:13:18;96312.78;;;11.85;100.00
32933;BME280;19444;50.518;10.870;2023-05-16T06:16:15;96318.50;;;11.49;100.00
32933;BME280;19444;50.518;10.870;2023-05-16T06:19:12;96320.25;;;11.45;100.00
32933;BME280;19444;50.518;10.870;2023-05-16T06:22:11;96317.06;;;11.86;100.00
32933;BME280;19444;50.518;10.870;2023-05-16T06:25:09;96330.59;;;12.07;100.00
32933;BME280;19444;50.518;10.870;2023-05-16T06:28:05;96327.41;;;12.05;100.00
32933;BME280;19444;50.518;10.870;2023-05-16T06:31:02;96330.91;;;11.97;100.00
32933;BME280;19444;50.518;10.870;2023-05-16T06:33:59;96338.84;;;11.76;100.00
32933;BME280;19444;50.518;10.870;2023-05-16T06:36:56;96338.06;;;11.76;100.00
32933;BME280;19444;50.518;10.870;2023-05-16T06:39:53;96341.38;;;11.73;100.00
32933;BME280;19444;50.518;10.870;2023-05-16T06:42:50;96341.47;;;12.11;100.00
32933;BME280;19444;50.518;10.870;2023-05-16T06:45:47;96345.56;;;12.17;100.00
32933;BME280;19444;50.518;10.870;2023-05-16T06:48:44;96345.25;;;12.18;100.00
32933;BME280;19444;50.518;10.870;2023-05-16T06:51:41;96344.50;;;12.01;100.00
32933;BME280;19444;50.518;10.870;2023-05-16T06:54:38;96346.66;;;12.16;100.00
32933;BME280;19444;50.518;10.870;2023-05-16T06:57:35;96344.47;;;12.18;100.00
32933;BME280;19444;50.518;10.870;2023-05-16T07:00:32;96341.59;;;12.23;100.00
32933;BME280;19444;50.518;10.870;2023-05-16T07:03:29;96345.84;;;12.24;100.00
32933;BME280;19444;50.518;10.870;2023-05-16T07:06:27;96344.06;;;11.99;100.00
32933;BME280;19444;50.518;10.870;2023-05-16T07:09:24;96347.81;;;11.98;100.00
32933;BME280;19444;50.518;10.870;2023-05-16T07:12:21;96348.31;;;12.46;100.00
32933;BME280;19444;50.518;10.870;2023-05-16T07:15:18;96358.88;;;11.96;100.00
32933;BME280;19444;50.518;10.870;2023-05-16T07:18:15;96365.94;;;12.27;100.00
32933;BME280;19444;50.518;10.870;2023-05-16T07:21:12;96364.19;;;12.22;100.00
32933;BME280;19444;50.518;10.870;2023-05-16T07:24:09;96355.88;;;11.98;100.00
32933;BME280;19444;50.518;10.870;2023-05-16T07:27:06;96370.44;;;11.53;100.00
32933;BME280;19444;50.518;10.870;2023-05-16T07:30:03;96367.25;;;12.03;100.00
32933;BME280;19444;50.518;10.870;2023-05-16T07:33:00;96378.34;;;11.84;100.00
32933;BME280;19444;50.518;10.870;2023-05-16T07:35:57;96379.91;;;11.51;100.00
32933;BME280;19444;50.518;10.870;2023-05-16T07:39:12;96382.59;;;11.59;100.00
32933;BME280;19444;50.518;10.870;2023-05-16T07:42:09;96387.16;;;11.76;100.00
32933;BME280;19444;50.518;10.870;2023-05-16T07:45:06;96384.94;;;11.69;100.00
32933;BME280;19444;50.518;10.870;2023-05-16T07:48:04;96391.72;;;11.15;100.00
32933;BME280;19444;50.518;10.870;2023-05-16T07:51:01;96392.84;;;11.31;100.00
32933;BME280;19444;50.518;10.870;2023-05-16T07:53:58;96390.63;;;11.77;100.00
32933;BME280;19444;50.518;10.870;2023-05-16T07:56:55;96395.41;;;11.71;100.00
32933;BME280;19444;50.518;10.870;2023-05-16T07:59:52;96388.41;;;12.13;100.00
32933;BME280;19444;50.518;10.870;2023-05-16T08:02:49;96393.59;;;12.27;100.00
32933;BME280;19444;50.518;10.870;2023-05-16T08:05:47;96408.00;;;11.79;100.00
32933;BME280;19444;50.518;10.870;2023-05-16T08:08:44;96406.75;;;11.51;100.00
32933;BME280;19444;50.518;10.870;2023-05-16T08:11:42;96402.81;;;11.74;100.00
32933;BME280;19444;50.518;10.870;2023-05-16T08:14:41;96409.44;;;11.85;100.00
32933;BME280;19444;50.518;10.870;2023-05-16T08:17:37;96406.88;;;11.20;100.00
32933;BME280;19444;50.518;10.870;2023-05-16T08:20:34;96404.84;;;11.25;100.00
32933;BME280;19444;50.518;10.870;2023-05-16T08:23:32;96404.56;;;11.53;100.00
32933;BME280;19444;50.518;10.870;2023-05-16T08:26:28;96410.84;;;11.39;100.00
32933;BME280;19444;50.518;10.870;2023-05-16T08:29:25;96421.56;;;11.31;100.00
32933;BME280;19444;50.518;10.870;2023-05-16T08:32:22;96415.91;;;11.76;100.00
32933;BME280;19444;50.518;10.870;2023-05-16T08:35:19;96424.91;;;11.88;100.00
32933;BME280;19444;50.518;10.870;2023-05-16T08:38:16;96428.22;;;11.59;100.00
32933;BME280;19444;50.518;10.870;2023-05-16T08:41:13;96418.53;;;12.36;100.00
32933;BME280;19444;50.518;10.870;2023-05-16T08:44:10;96428.56;;;12.01;100.00
32933;BME280;19444;50.518;10.870;2023-05-16T08:47:17;96414.25;;;12.44;100.00
32933;BME280;19444;50.518;10.870;2023-05-16T08:50:15;96414.88;;;12.79;100.00
32933;BME280;19444;50.518;10.870;2023-05-16T08:53:14;96420.47;;;12.27;100.00
32933;BME280;19444;50.518;10.870;2023-05-16T08:56:13;96413.81;;;12.16;100.00
32933;BME280;19444;50.518;10.870;2023-05-16T08:59:12;96411.38;;;12.49;100.00
32933;BME280;19444;50.518;10.870;2023-05-16T09:02:10;96419.47;;;12.32;100.00
32933;BME280;19444;50.518;10.870;2023-05-16T09:05:11;96411.25;;;12.45;100.00
32933;BME280;19444;50.518;10.870;2023-05-16T09:08:08;96408.00;;;12.99;100.00
32933;BME280;19444;50.518;10.870;2023-05-16T09:11:05;96414.19;;;11.71;100.00
32933;BME280;19444;50.518;10.870;2023-05-16T09:14:02;96414.13;;;12.70;100.00
32933;BME280;19444;50.518;10.870;2023-05-16T09:17:05;96422.84;;;12.67;100.00
32933;BME280;19444;50.518;10.870;2023-05-16T09:20:15;96422.41;;;12.01;100.00
32933;BME280;19444;50.518;10.870;2023-05-16T09:23:13;96421.88;;;12.16;100.00
32933;BME280;19444;50.518;10.870;2023-05-16T09:26:10;96416.34;;;12.21;100.00
32933;BME280;19444;50.518;10.870;2023-05-16T09:29:11;96434.41;;;11.94;100.00
32933;BME280;19444;50.518;10.870;2023-05-16T09:32:15;96442.22;;;12.34;100.00
32933;BME280;19444;50.518;10.870;2023-05-16T09:35:15;96446.09;;;12.07;100.00
32933;BME280;19444;50.518;10.870;2023-05-16T09:38:32;96455.88;;;11.94;100.00
32933;BME280;19444;50.518;10.870;2023-05-16T09:41:33;96462.03;;;12.12;100.00
32933;BME280;19444;50.518;10.870;2023-05-16T09:44:33;96474.47;;;12.34;100.00
32933;BME280;19444;50.518;10.870;2023-05-16T09:47:30;96475.78;;;12.28;100.00
32933;BME280;19444;50.518;10.870;2023-05-16T09:50:27;96478.00;;;12.81;100.00
32933;BME280;19444;50.518;10.870;2023-05-16T09:53:28;96468.09;;;13.03;100.00
32933;BME280;19444;50.518;10.870;2023-05-16T09:56:25;96460.34;;;13.60;100.00
32933;BME280;19444;50.518;10.870;2023-05-16T09:59:22;96463.94;;;12.03;100.00
32933;BME280;19444;50.518;10.870;2023-05-16T10:02:19;96454.97;;;13.60;100.00
32933;BME280;19444;50.518;10.870;2023-05-16T10:05:17;96453.81;;;13.91;100.00
32933;BME280;19444;50.518;10.870;2023-05-16T10:08:14;96449.13;;;13.58;100.00
32933;BME280;19444;50.518;10.870;2023-05-16T10:11:12;96456.03;;;13.89;100.00
32933;BME280;19444;50.518;10.870;2023-05-16T10:14:11;96452.44;;;13.85;100.00
32933;BME280;19444;50.518;10.870;2023-05-16T10:17:11;96457.16;;;13.67;100.00
32933;BME280;19444;50.518;10.870;2023-05-16T10:20:11;96463.28;;;13.26;100.00
32933;BME280;19444;50.518;10.870;2023-05-16T10:23:10;96450.44;;;14.48;100.00
32933;BME280;19444;50.518;10.870;2023-05-16T10:26:10;96447.31;;;14.25;100.00
32933;BME280;19444;50.518;10.870;2023-05-16T10:29:10;96446.69;;;14.73;100.00
32933;BME280;19444;50.518;10.870;2023-05-16T10:32:07;96452.34;;;13.93;100.00
32933;BME280;19444;50.518;10.870;2023-05-16T10:35:06;96465.56;;;13.65;100.00
32933;BME280;19444;50.518;10.870;2023-05-16T10:38:06;96477.84;;;12.78;100.00
32933;BME280;19444;50.518;10.870;2023-05-16T10:41:06;96482.03;;;12.49;100.00
32933;BME280;19444;50.518;10.870;2023-05-16T10:44:11;96476.94;;;12.65;100.00
32933;BME280;19444;50.518;10.870;2023-05-16T10:47:08;96478.63;;;12.78;100.00
32933;BME280;19444;50.518;10.870;2023-05-16T10:50:06;96480.16;;;12.97;100.00
32933;BME280;19444;50.518;10.870;2023-05-16T10:53:29;96483.16;;;12.95;100.00
32933;BME280;19444;50.518;10.870;2023-05-16T10:56:26;96490.50;;;13.24;100.00
32933;BME280;19444;50.518;10.870;2023-05-16T10:59:25;96495.03;;;12.94;100.00
32933;BME280;19444;50.518;10.870;2023-05-16T11:02:32;96503.28;;;13.36;100.00
32933;BME280;19444;50.518;10.870;2023-05-16T11:05:30;96504.38;;;12.88;100.00
32933;BME280;19444;50.518;10.870;2023-05-16T11:08:27;96485.75;;;13.51;100.00
32933;BME280;19444;50.518;10.870;2023-05-16T11:11:57;96487.19;;;12.80;100.00
32933;BME280;19444;50.518;10.870;2023-05-16T11:14:58;96491.16;;;12.74;100.00
32933;BME280;19444;50.518;10.870;2023-05-16T11:18:13;96488.34;;;13.09;100.00
32933;BME280;19444;50.518;10.870;2023-05-16T11:21:10;96492.03;;;14.05;100.00
32933;BME280;19444;50.518;10.870;2023-05-16T11:24:30;96520.00;;;13.03;100.00
32933;BME280;19444;50.518;10.870;2023-05-16T11:27:44;96523.28;;;13.26;100.00
32933;BME280;19444;50.518;10.870;2023-05-16T11:30:49;96542.44;;;11.83;100.00
32933;BME280;19444;50.518;10.870;2023-05-16T11:33:49;96521.31;;;12.07;100.00
32933;BME280;19444;50.518;10.870;2023-05-16T11:36:49;96515.13;;;12.24;100.00
32933;BME280;19444;50.518;10.870;2023-05-16T11:39:46;96517.59;;;12.72;100.00
32933;BME280;19444;50.518;10.870;2023-05-16T11:42:46;96529.72;;;12.78;100.00
32933;BME280;19444;50.518;10.870;2023-05-16T11:45:46;96522.59;;;13.38;100.00
32933;BME280;19444;50.518;10.870;2023-05-16T11:48:49;96503.13;;;14.45;100.00
32933;BME280;19444;50.518;10.870;2023-05-16T11:51:46;96507.63;;;13.49;100.00
32933;BME280;19444;50.518;10.870;2023-05-16T11:54:43;96501.09;;;13.59;100.00
32933;BME280;19444;50.518;10.870;2023-05-16T11:57:40;96503.41;;;13.90;100.00
32933;BME280;19444;50.518;10.870;2023-05-16T12:00:47;96502.53;;;13.56;100.00
32933;BME280;19444;50.518;10.870;2023-05-16T12:03:54;96510.69;;;13.69;100.00
32933;BME280;19444;50.518;10.870;2023-05-16T12:07:00;96522.91;;;13.66;100.00
32933;BME280;19444;50.518;10.870;2023-05-16T12:09:57;96521.53;;;13.22;100.00
32933;BME280;19444;50.518;10.870;2023-05-16T12:12:55;96513.97;;;13.53;100.00
32933;BME280;19444;50.518;10.870;2023-05-16T12:15:52;96523.78;;;14.74;100.00
32933;BME280;19444;50.518;10.870;2023-05-16T12:18:49;96527.81;;;12.79;100.00
32933;BME280;19444;50.518;10.870;2023-05-16T12:21:46;96530.91;;;13.07;100.00
32933;BME280;19444;50.518;10.870;2023-05-16T12:24:43;96526.84;;;13.01;100.00
32933;BME280;19444;50.518;10.870;2023-05-16T12:27:41;96517.97;;;13.68;100.00
32933;BME280;19444;50.518;10.870;2023-05-16T12:30:43;96524.16;;;13.69;100.00
32933;BME280;19444;50.518;10.870;2023-05-16T12:33:40;96510.84;;;14.68;97.04
32933;BME280;19444;50.518;10.870;2023-05-16T12:36:37;96502.25;;;14.00;100.00
32933;BME280;19444;50.518;10.870;2023-05-16T12:39:37;96506.75;;;13.66;100.00
32933;BME280;19444;50.518;10.870;2023-05-16T12:42:34;96520.75;;;13.51;100.00
32933;BME280;19444;50.518;10.870;2023-05-16T12:45:32;96503.94;;;14.04;90.66
32933;BME280;19444;50.518;10.870;2023-05-16T12:48:32;96493.22;;;15.92;76.92
32933;BME280;19444;50.518;10.870;2023-05-16T12:51:32;96486.94;;;17.51;63.86
32933;BME280;19444;50.518;10.870;2023-05-16T12:54:31;96478.84;;;17.20;62.44
32933;BME280;19444;50.518;10.870;2023-05-16T12:57:28;96483.75;;;16.27;71.68
32933;BME280;19444;50.518;10.870;2023-05-16T13:00:24;96491.66;;;14.94;73.70
32933;BME280;19444;50.518;10.870;2023-05-16T13:03:22;96500.00;;;17.30;74.86
32933;BME280;19444;50.518;10.870;2023-05-16T13:06:19;96499.59;;;16.68;62.31
32933;BME280;19444;50.518;10.870;2023-05-16T13:09:16;96485.22;;;18.33;54.68
32933;BME280;19444;50.518;10.870;2023-05-16T13:12:13;96475.63;;;18.78;53.34
32933;BME280;19444;50.518;10.870;2023-05-16T13:15:11;96476.63;;;17.92;50.94
32933;BME280;19444;50.518;10.870;2023-05-16T13:18:08;96490.06;;;16.31;64.97
32933;BME280;19444;50.518;10.870;2023-05-16T13:21:05;96491.75;;;15.95;62.54
32933;BME280;19444;50.518;10.870;2023-05-16T13:24:02;96496.81;;;16.53;63.14
32933;BME280;19444;50.518;10.870;2023-05-16T13:26:59;96473.66;;;19.73;48.14
32933;BME280;19444;50.518;10.870;2023-05-16T13:29:56;96477.84;;;20.27;44.76
32933;BME280;19444;50.518;10.870;2023-05-16T13:32:54;96488.66;;;17.75;51.61
32933;BME280;19444;50.518;10.870;2023-05-16T13:35:51;96502.25;;;16.96;53.50
32933;BME280;19444;50.518;10.870;2023-05-16T13:38:49;96506.44;;;16.94;56.51
32933;BME280;19444;50.518;10.870;2023-05-16T13:41:46;96494.13;;;18.14;48.79
32933;BME280;19444;50.518;10.870;2023-05-16T13:44:45;96508.63;;;17.35;42.61
32933;BME280;19444;50.518;10.870;2023-05-16T13:47:42;96513.22;;;17.67;47.09
32933;BME280;19444;50.518;10.870;2023-05-16T13:50:40;96487.44;;;18.66;43.82
32933;BME280;19444;50.518;10.870;2023-05-16T13:53:40;96482.66;;;18.82;50.29
32933;BME280;19444;50.518;10.870;2023-05-16T13:56:37;96490.22;;;18.11;42.16
32933;BME280;19444;50.518;10.870;2023-05-16T13:59:34;96493.81;;;19.46;44.74
32933;BME280;19444;50.518;10.870;2023-05-16T14:02:51;96508.22;;;21.00;50.60
32933;BME280;19444;50.518;10.870;2023-05-16T14:05:48;96507.81;;;19.71;63.56
32933;BME280;19444;50.518;10.870;2023-05-16T14:08:45;96509.56;;;17.59;52.75
32933;BME280;19444;50.518;10.870;2023-05-16T14:11:42;96511.22;;;17.63;82.59
32933;BME280;19444;50.518;10.870;2023-05-16T14:14:39;96529.56;;;16.47;50.62
32933;BME280;19444;50.518;10.870;2023-05-16T14:17:36;96529.25;;;17.56;82.57
32933;BME280;19444;50.518;10.870;2023-05-16T14:20:33;96538.63;;;16.27;55.70
32933;BME280;19444;50.518;10.870;2023-05-16T14:23:32;96532.19;;;16.60;51.80
32933;BME280;19444;50.518;10.870;2023-05-16T14:26:29;96529.47;;;16.60;67.12
32933;BME280;19444;50.518;10.870;2023-05-16T14:29:27;96533.69;;;16.85;48.46
32933;BME280;19444;50.518;10.870;2023-05-16T14:32:24;96540.75;;;15.93;49.96
32933;BME280;19444;50.518;10.870;2023-05-16T14:35:22;96551.72;;;15.03;52.61
32933;BME280;19444;50.518;10.870;2023-05-16T14:38:19;96549.63;;;15.45;51.70
32933;BME280;19444;50.518;10.870;2023-05-16T14:41:16;96551.34;;;15.38;51.80
32933;BME280;19444;50.518;10.870;2023-05-16T14:44:14;96540.47;;;16.79;54.43
32933;BME280;19444;50.518;10.870;2023-05-16T14:47:11;96542.34;;;16.23;50.14
32933;BME280;19444;50.518;10.870;2023-05-16T14:50:08;96547.75;;;14.88;49.66
32933;BME280;19444;50.518;10.870;2023-05-16T14:53:05;96539.03;;;16.01;51.66
32933;BME280;19444;50.518;10.870;2023-05-16T14:56:02;96544.53;;;16.73;44.14
32933;BME280;19444;50.518;10.870;2023-05-16T14:58:59;96548.84;;;15.45;47.03
32933;BME280;19444;50.518;10.870;2023-05-16T15:01:57;96551.91;;;15.55;49.81
32933;BME280;19444;50.518;10.870;2023-05-16T15:04:55;96555.69;;;15.54;54.37
32933;BME280;19444;50.518;10.870;2023-05-16T15:07:52;96546.38;;;15.40;50.09
32933;BME280;19444;50.518;10.870;2023-05-16T15:10:49;96537.47;;;17.44;46.22
32933;BME280;19444;50.518;10.870;2023-05-16T15:13:46;96540.94;;;15.15;50.62
32933;BME280;19444;50.518;10.870;2023-05-16T15:16:44;96538.16;;;16.93;44.96
32933;BME280;19444;50.518;10.870;2023-05-16T15:19:42;96537.44;;;17.59;47.60
32933;BME280;19444;50.518;10.870;2023-05-16T15:22:40;96545.16;;;18.08;39.85
32933;BME280;19444;50.518;10.870;2023-05-16T15:25:37;96546.09;;;17.02;46.08
32933;BME280;19444;50.518;10.870;2023-05-16T15:28:34;96543.81;;;17.83;40.90
32933;BME280;19444;50.518;10.870;2023-05-16T15:31:31;96538.81;;;16.74;47.96
32933;BME280;19444;50.518;10.870;2023-05-16T15:34:28;96543.63;;;15.03;43.22
32933;BME280;19444;50.518;10.870;2023-05-16T15:37:25;96532.50;;;15.90;44.32
32933;BME280;19444;50.518;10.870;2023-05-16T15:40:22;96536.38;;;16.57;41.09